createdAt,value
2022-08-16T00:02:56.195Z,1001.3
2022-08-16T00:08:04.882Z,1001.3
2022-08-16T00:13:09.182Z,1001.3
2022-08-16T00:18:05.653Z,1001.4
2022-08-16T00:23:24.522Z,1001.3
2022-08-16T00:28:28.703Z,1001.4
2022-08-16T00:33:59.037Z,1001.4
2022-08-16T00:38:43.392Z,1001.3
2022-08-16T00:43:47.744Z,1001.3
2022-08-16T00:48:54.138Z,1001.2
2022-08-16T00:54:00.678Z,1001.3
2022-08-16T00:59:07.116Z,1001.2
2022-08-16T01:04:29.176Z,1001.2
2022-08-16T01:09:47.964Z,1001.2
2022-08-16T01:14:29.928Z,1001.2
2022-08-16T01:19:57.145Z,1001.3
2022-08-16T01:25:03.085Z,1001.3
2022-08-16T01:29:58.609Z,1001.3
2022-08-16T01:34:53.647Z,1001.3
2022-08-16T01:39:58.436Z,1001.3
2022-08-16T01:45:04.750Z,1001.3
2022-08-16T01:50:42.184Z,1001.3
2022-08-16T01:55:41.637Z,1001.3
2022-08-16T02:00:29.328Z,1001.4
2022-08-16T02:05:52.106Z,1001.3
2022-08-16T02:10:36.981Z,1001.4
2022-08-16T02:15:43.917Z,1001.4
2022-08-16T02:20:49.920Z,1001.4
2022-08-16T02:25:56.364Z,1001.4
2022-08-16T02:31:02.799Z,1001.4
2022-08-16T02:36:14.055Z,1001.4
2022-08-16T02:41:15.572Z,1001.4
2022-08-16T02:46:29.889Z,1001.3
2022-08-16T02:51:52.600Z,1001.3
2022-08-16T02:56:35.035Z,1001.4
2022-08-16T03:01:41.588Z,1001.4
2022-08-16T03:07:11.842Z,1001.5
2022-08-16T03:12:16.545Z,1001.5
2022-08-16T03:17:01.856Z,1001.5
2022-08-16T03:22:30.973Z,1001.6
2022-08-16T03:27:13.400Z,1001.5
2022-08-16T03:32:19.782Z,1001.4
2022-08-16T03:37:26.163Z,1001.5
2022-08-16T03:43:18.466Z,1001.5
2022-08-16T03:47:59.792Z,1001.5
2022-08-16T03:52:45.492Z,1001.5
2022-08-16T03:57:52.239Z,1001.4
2022-08-16T04:02:58.119Z,1001.5
2022-08-16T04:08:23.486Z,1001.5
2022-08-16T04:13:20.459Z,1001.5
2022-08-16T04:18:41.349Z,1001.5
2022-08-16T04:23:23.689Z,1001.5
2022-08-16T04:28:54.268Z,1001.5
2022-08-16T04:34:00.504Z,1001.6
2022-08-16T04:38:43.047Z,1001.5
2022-08-16T04:43:49.532Z,1001.5
2022-08-16T04:49:19.985Z,1001.6
2022-08-16T04:54:02.297Z,1001.6
2022-08-16T04:59:32.722Z,1001.7
2022-08-16T05:04:35.186Z,1001.7
2022-08-16T05:09:23.136Z,1001.8
2022-08-16T05:14:45.721Z,1001.9
2022-08-16T05:19:35.861Z,1001.9
2022-08-16T05:24:40.952Z,1001.8
2022-08-16T05:30:00.931Z,1002.0
2022-08-16T05:35:14.035Z,1002.0
2022-08-16T05:40:57.258Z,1002.1
2022-08-16T05:45:07.482Z,1002.1
2022-08-16T05:50:03.853Z,1002.3
2022-08-16T05:56:51.422Z,1002.3
2022-08-16T06:00:26.679Z,1002.5
2022-08-16T06:05:36.230Z,1002.5
2022-08-16T06:10:32.402Z,1002.5
2022-08-16T06:15:59.929Z,1002.5
2022-08-16T06:20:55.582Z,1002.6
2022-08-16T06:26:59.481Z,1002.6
2022-08-16T06:31:06.094Z,1002.6
2022-08-16T06:36:14.101Z,1002.6
2022-08-16T06:41:18.862Z,1002.5
2022-08-16T06:46:15.223Z,1002.5
2022-08-16T06:51:52.510Z,1002.6
2022-08-16T06:56:39.639Z,1002.6
2022-08-16T07:01:53.716Z,1002.7
2022-08-16T07:07:12.497Z,1002.7
2022-08-16T07:12:03.266Z,1002.7
2022-08-16T07:17:08.350Z,1002.7
2022-08-16T07:22:39.223Z,1002.9
2022-08-16T07:27:19.795Z,1002.8
2022-08-16T07:32:31.748Z,1003.0
2022-08-16T07:42:45.526Z,1003.0
2022-08-16T07:47:52.160Z,1002.9
2022-08-16T07:53:18.590Z,1003.0
2022-08-16T07:58:04.922Z,1003.0
2022-08-16T08:03:36.139Z,1003.0
2022-08-16T08:08:49.108Z,1003.0
2022-08-16T08:13:31.015Z,1003.1
2022-08-16T08:19:42.784Z,1003.0
2022-08-16T08:28:33.965Z,1002.9
2022-08-16T08:33:51.819Z,1002.8
2022-08-16T08:39:13.131Z,1002.9
2022-08-16T08:43:54.346Z,1002.8
2022-08-16T08:49:02.362Z,1002.9
2022-08-16T08:54:09.262Z,1002.9
2022-08-16T08:59:43.523Z,1002.8
2022-08-16T09:09:37.817Z,1002.7
2022-08-16T09:15:03.258Z,1002.7
2022-08-16T09:19:40.768Z,1002.7
2022-08-16T09:24:59.826Z,1002.7
2022-08-16T09:30:33.670Z,1002.7
2022-08-16T09:35:16.588Z,1002.8
2022-08-16T09:40:43.986Z,1002.5
2022-08-16T09:45:25.493Z,1002.5
2022-08-16T09:50:22.551Z,1002.6
2022-08-16T09:55:44.245Z,1002.6
2022-08-16T10:00:44.360Z,1002.4
2022-08-16T10:07:15.051Z,1002.4
2022-08-16T10:11:24.741Z,1002.3
2022-08-16T10:16:07.883Z,1002.3
2022-08-16T10:21:00.163Z,1002.2
2022-08-16T10:27:16.247Z,1002.3
2022-08-16T10:31:43.500Z,1002.1
2022-08-16T10:36:39.278Z,1001.9
2022-08-16T10:42:20.685Z,1002.0
2022-08-16T10:47:30.432Z,1002.0
2022-08-16T10:57:41.410Z,1002.0
2022-08-16T11:02:58.614Z,1002.6
2022-08-16T11:07:45.420Z,1002.3
2022-08-16T11:13:21.035Z,1002.1
2022-08-16T11:23:13.445Z,1002.8
2022-08-16T11:34:20.812Z,1002.6
2022-08-16T11:38:51.974Z,1002.4
2022-08-16T11:43:41.984Z,1002.5
2022-08-16T11:49:14.367Z,1002.5
2022-08-16T11:53:56.365Z,1002.6
2022-08-16T11:59:02.922Z,1002.9
2022-08-16T12:04:09.416Z,1002.9
2022-08-16T12:09:21.321Z,1002.7
2022-08-16T12:14:27.719Z,1002.7
2022-08-16T12:19:33.676Z,1003.0
2022-08-16T12:25:00.696Z,1002.5
2022-08-16T12:30:21.301Z,1002.7
2022-08-16T12:34:53.527Z,1003.1
2022-08-16T12:39:59.953Z,1003.1
2022-08-16T12:45:09.819Z,1002.6
2022-08-16T12:50:06.191Z,1002.6
2022-08-16T12:55:14.345Z,1003.1
2022-08-16T13:06:01.969Z,1002.6
2022-08-16T13:10:45.295Z,1003.3
2022-08-16T13:15:57.191Z,1003.1
2022-08-16T13:21:23.329Z,1002.7
2022-08-16T13:26:07.939Z,1003.4
2022-08-16T13:31:14.254Z,1003.4
2022-08-16T13:41:30.311Z,1003.5
2022-08-16T13:46:32.954Z,1003.4
2022-08-16T13:52:23.787Z,1003.4
2022-08-16T13:57:53.395Z,1002.9
2022-08-16T14:03:01.903Z,1002.9
2022-08-16T14:07:44.156Z,1003.0
2022-08-16T14:12:54.509Z,1002.6
2022-08-16T14:18:21.157Z,1002.5
2022-08-16T14:23:03.253Z,1002.5
2022-08-16T14:28:09.857Z,1002.6
2022-08-16T14:34:29.942Z,1002.7
2022-08-16T14:38:23.650Z,1002.6
2022-08-16T14:44:06.050Z,1002.7
2022-08-16T14:49:03.459Z,1002.6
2022-08-16T14:54:19.958Z,1002.7
2022-08-16T14:59:16.340Z,1002.7
2022-08-16T15:04:48.062Z,1002.8
2022-08-16T15:10:03.588Z,1002.7
2022-08-16T15:14:36.042Z,1002.8
2022-08-16T15:19:52.444Z,1002.8
2022-08-16T15:25:18.878Z,1002.9
2022-08-16T15:30:56.706Z,1002.9
2022-08-16T15:35:03.425Z,1002.9
2022-08-16T15:40:32.397Z,1002.8
2022-08-16T15:46:03.838Z,1002.9
2022-08-16T15:51:11.134Z,1003.0
2022-08-16T15:56:21.530Z,1003.0
2022-08-16T16:01:14.036Z,1003.0
2022-08-16T16:06:30.323Z,1003.0
2022-08-16T16:11:36.703Z,1003.1
2022-08-16T16:17:07.151Z,1003.0
2022-08-16T16:21:49.571Z,1003.0
2022-08-16T16:26:45.941Z,1003.0
2022-08-16T16:32:02.350Z,1003.0
2022-08-16T16:37:09.986Z,1003.1
2022-08-16T16:42:35.285Z,1003.1
2022-08-16T16:48:45.857Z,1003.1
2022-08-16T16:52:31.405Z,1003.1
2022-08-16T16:57:55.754Z,1003.1
2022-08-16T17:02:49.714Z,1003.2
2022-08-16T17:07:48.681Z,1003.2
2022-08-16T17:13:18.912Z,1003.2
2022-08-16T17:18:01.893Z,1003.3
2022-08-16T17:23:07.792Z,1003.3
2022-08-16T17:28:58.867Z,1003.4
2022-08-16T17:38:39.038Z,1003.4
2022-08-16T17:39:27.126Z,1003.4
2022-08-16T17:43:23.258Z,1003.4
2022-08-16T17:48:39.686Z,1003.5
2022-08-16T17:53:50.442Z,1003.6
2022-08-16T18:00:05.793Z,1003.6
2022-08-16T18:04:09.165Z,1003.6
2022-08-16T18:09:06.925Z,1003.6
2022-08-16T18:14:50.929Z,1003.7
2022-08-16T18:19:40.383Z,1003.8
2022-08-16T18:24:16.700Z,1003.8
2022-08-16T18:29:33.103Z,1003.8
2022-08-16T18:34:39.618Z,1003.7
2022-08-16T18:40:10.630Z,1004.0
2022-08-16T18:44:52.892Z,1004.0
2022-08-16T18:49:59.364Z,1004.0
2022-08-16T18:55:14.055Z,1004.1
2022-08-16T19:00:12.218Z,1004.2
2022-08-16T19:05:18.588Z,1004.3
2022-08-16T19:10:39.021Z,1004.3
2022-08-16T19:16:15.487Z,1004.4
2022-08-16T19:20:37.808Z,1004.5
2022-08-16T19:25:48.653Z,1004.6
2022-08-16T19:30:54.803Z,1004.5
2022-08-16T19:42:53.924Z,1004.7
2022-08-16T19:46:49.205Z,1004.7
2022-08-16T19:52:15.615Z,1004.7
2022-08-16T19:56:51.942Z,1004.8
2022-08-16T20:01:58.392Z,1004.8
2022-08-16T20:07:14.789Z,1004.9
2022-08-16T20:12:21.184Z,1004.9
2022-08-16T20:17:50.826Z,1004.8
2022-08-16T20:22:54.743Z,1005.0
2022-08-16T20:27:44.857Z,1005.0
2022-08-16T20:32:51.551Z,1005.1
2022-08-16T20:37:57.755Z,1005.1
2022-08-16T20:43:28.187Z,1005.1
2022-08-16T20:48:10.585Z,1005.1
2022-08-16T20:53:37.349Z,1005.2
2022-08-16T20:58:47.507Z,1005.3
2022-08-16T21:03:51.450Z,1005.4
2022-08-16T21:08:51.914Z,1005.4
2022-08-16T21:13:44.181Z,1005.5
2022-08-16T21:18:50.550Z,1005.5
2022-08-16T21:24:41.016Z,1005.6
2022-08-16T21:29:03.296Z,1005.7
2022-08-16T21:33:59.660Z,1005.7
2022-08-16T21:39:16.195Z,1005.7
2022-08-16T21:44:12.585Z,1005.7
2022-08-16T21:49:53.022Z,1005.6
2022-08-16T21:54:35.369Z,1005.6
2022-08-16T21:59:41.827Z,1005.7
2022-08-16T22:04:52.160Z,1005.7
2022-08-16T22:09:56.221Z,1005.8
2022-08-16T22:14:51.065Z,1005.8
2022-08-16T22:20:27.548Z,1005.7
2022-08-16T22:25:37.930Z,1005.8
2022-08-16T22:30:20.290Z,1005.8
2022-08-16T22:35:26.636Z,1005.8
2022-08-16T22:40:33.027Z,1005.7
2022-08-16T22:45:39.485Z,1005.7
2022-08-16T22:50:45.893Z,1005.7
2022-08-16T22:56:54.463Z,1005.7
2022-08-16T23:00:58.732Z,1005.7
2022-08-16T23:06:05.134Z,1005.6
2022-08-16T23:11:13.071Z,1005.6
2022-08-16T23:16:19.448Z,1005.7
2022-08-16T23:21:31.426Z,1005.7
2022-08-16T23:26:46.783Z,1005.7
2022-08-16T23:31:40.184Z,1005.6
2022-08-16T23:36:46.579Z,1005.5
2022-08-16T23:42:53.575Z,1005.5
2022-08-16T23:47:34.405Z,1005.4
2022-08-16T23:52:55.815Z,1005.3
2022-08-16T23:58:11.349Z,1005.3
